Almira, Washington
Current Conditions -  °F | °C
As of 6:53 PM on Friday 24 Oct 2014 (Local Time) from KEPH Reporting Station
Light Rain Light Rain  
Wind Chill: 52°   Ceiling: 6000
Heat Index: 52°   Visibility: 10mi
Dew Point: 45°   Wind: 6mph
Humidity: 77%   Direction: 350°N
Pressure: 29.97"   Gusts: NA
Location:  47.71°N, 118.94°W
Report Text: KEPH 250153Z AUTO 35005KT 10SM -RA OVC060 11/07 A2997 RMK AO2 RAB22 SLP154 P0000 T01110072
Loading
Personal Weather Stations






























Interactive Weather Map
Tropical Storm Tracking
New forecast layout! Learn more

10-Day Weather Forecast

Advertisements
Track Severe Weather on mobile